createdAt,value
2023-03-08T00:04:04.441Z,4.69
2023-03-08T00:09:07.136Z,4.70
2023-03-08T00:14:09.816Z,4.69
2023-03-08T00:19:12.299Z,4.88
2023-03-08T00:24:17.758Z,4.78
2023-03-08T00:29:20.170Z,4.74
2023-03-08T00:34:22.757Z,4.70
2023-03-08T00:39:25.254Z,4.61
2023-03-08T00:44:27.842Z,4.59
2023-03-08T00:49:30.249Z,4.55
2023-03-08T00:54:33.978Z,4.47
2023-03-08T00:59:36.673Z,4.46
2023-03-08T01:04:40.421Z,4.47
2023-03-08T01:09:42.860Z,4.38
2023-03-08T01:14:45.220Z,4.25
2023-03-08T01:19:49.374Z,4.20
2023-03-08T01:24:53.491Z,4.15
2023-03-08T01:29:55.922Z,4.03
2023-03-08T01:35:04.572Z,3.95
2023-03-08T01:40:08.272Z,4.10
2023-03-08T01:45:48.348Z,3.98
2023-03-08T01:50:51.246Z,3.88
2023-03-08T01:55:54.491Z,3.81
2023-03-08T02:05:59.612Z,3.61
2023-03-08T02:11:02.960Z,3.52
2023-03-08T02:16:09.817Z,3.60
2023-03-08T02:21:13.128Z,3.65
2023-03-08T02:26:16.300Z,3.63
2023-03-08T02:31:18.705Z,3.61
2023-03-08T02:36:21.088Z,3.68
2023-03-08T02:41:25.678Z,3.67
2023-03-08T02:46:28.700Z,3.63
2023-03-08T02:51:33.134Z,3.67
2023-03-08T02:56:37.588Z,3.65
2023-03-08T03:01:40.428Z,3.77
2023-03-08T03:06:43.030Z,3.71
2023-03-08T03:11:47.598Z,3.70
2023-03-08T03:16:50.325Z,4.02
2023-03-08T03:21:53.145Z,3.82
2023-03-08T03:26:55.683Z,3.80
2023-03-08T03:32:00.708Z,3.76
2023-03-08T03:37:03.966Z,3.70
2023-03-08T03:42:10.286Z,3.67
2023-03-08T03:47:18.077Z,3.60
2023-03-08T03:52:22.103Z,3.68
2023-03-08T03:57:32.337Z,3.61
2023-03-08T04:02:35.583Z,3.60
2023-03-08T04:07:38.429Z,3.56
2023-03-08T04:12:42.517Z,3.54
2023-03-08T04:17:45.566Z,3.58
2023-03-08T04:22:49.287Z,3.53
2023-03-08T04:27:58.491Z,3.53
2023-03-08T04:33:01.491Z,3.56
2023-03-08T04:38:12.277Z,3.58
2023-03-08T04:43:15.615Z,3.77
2023-03-08T04:48:18.871Z,3.88
2023-03-08T04:53:23.674Z,3.89
2023-03-08T04:58:26.692Z,4.05
2023-03-08T05:03:29.540Z,4.01
2023-03-08T05:08:32.021Z,4.04
2023-03-08T05:13:37.492Z,4.06
2023-03-08T05:18:41.146Z,4.17
2023-03-08T05:23:44.972Z,4.22
2023-03-08T05:28:49.288Z,4.32
2023-03-08T05:33:53.853Z,4.33
2023-03-08T05:39:07.149Z,4.32
2023-03-08T05:44:22.709Z,4.32
2023-03-08T05:49:25.408Z,4.42
2023-03-08T05:54:28.452Z,4.37
2023-03-08T05:59:35.194Z,4.51
2023-03-08T06:04:39.737Z,4.49
2023-03-08T06:09:42.198Z,4.74
2023-03-08T06:14:49.359Z,4.76
2023-03-08T06:19:54.637Z,4.85
2023-03-08T06:24:58.253Z,4.95
2023-03-08T06:30:07.391Z,4.98
2023-03-08T06:35:10.953Z,5.06
2023-03-08T06:40:20.910Z,5.20
2023-03-08T06:45:23.903Z,5.38
2023-03-08T06:50:26.553Z,5.70
2023-03-08T06:55:29.322Z,5.88
2023-03-08T07:00:32.391Z,6.19
2023-03-08T07:05:35.368Z,6.15
2023-03-08T07:10:38.291Z,6.10
2023-03-08T07:15:41.473Z,6.15
2023-03-08T07:20:49.663Z,6.09
2023-03-08T07:25:52.451Z,6.11
2023-03-08T07:30:56.094Z,6.27
2023-03-08T07:36:01.814Z,6.39
2023-03-08T07:41:04.412Z,6.37
2023-03-08T07:46:07.139Z,6.73
2023-03-08T07:51:10.705Z,6.90
2023-03-08T07:56:13.378Z,6.91
2023-03-08T08:01:16.077Z,6.95
2023-03-08T08:06:19.994Z,6.68
2023-03-08T08:11:23.267Z,6.52
2023-03-08T08:16:25.917Z,6.81
2023-03-08T08:21:28.383Z,6.72
2023-03-08T08:26:30.813Z,6.42
2023-03-08T08:31:36.380Z,6.75
2023-03-08T08:36:39.058Z,7.03
2023-03-08T08:41:41.628Z,7.11
2023-03-08T08:46:44.050Z,7.05
2023-03-08T08:51:46.502Z,7.21
2023-03-08T08:56:48.892Z,7.37
2023-03-08T09:01:51.094Z,7.03
2023-03-08T09:06:53.825Z,7.12
2023-03-08T09:11:56.200Z,7.27
2023-03-08T09:16:58.335Z,7.53
2023-03-08T09:22:00.447Z,7.67
2023-03-08T09:27:06.473Z,7.82
2023-03-08T09:32:09.481Z,7.60
2023-03-08T09:37:12.435Z,7.74
2023-03-08T09:42:34.373Z,7.90
2023-03-08T09:48:11.294Z,7.67
2023-03-08T09:53:38.633Z,8.09
2023-03-08T09:58:40.955Z,7.90
2023-03-08T10:04:11.971Z,7.92
2023-03-08T10:09:42.093Z,8.05
2023-03-08T10:14:50.610Z,8.60
2023-03-08T10:20:01.195Z,8.70
2023-03-08T10:25:30.494Z,8.65
2023-03-08T10:30:40.389Z,8.57
2023-03-08T10:36:12.752Z,8.79
2023-03-08T10:41:18.577Z,9.06
2023-03-08T10:46:24.516Z,9.45
2023-03-08T10:51:30.443Z,10.20
2023-03-08T10:56:35.705Z,10.69
2023-03-08T11:01:52.948Z,11.07
2023-03-08T11:06:55.799Z,10.92
2023-03-08T11:12:00.097Z,10.93
2023-03-08T11:17:13.883Z,11.39
2023-03-08T11:22:29.648Z,10.81
2023-03-08T11:27:50.100Z,10.72
2023-03-08T11:33:09.036Z,10.50
2023-03-08T11:38:31.314Z,10.63
2023-03-08T11:43:58.674Z,10.91
2023-03-08T11:49:27.825Z,11.34
2023-03-08T11:55:06.353Z,11.19
2023-03-08T12:00:28.485Z,11.03
2023-03-08T12:05:39.241Z,11.07
2023-03-08T12:11:08.590Z,11.33
2023-03-08T12:16:15.425Z,11.53
2023-03-08T12:21:41.650Z,11.38
2023-03-08T12:26:56.314Z,11.54
2023-03-08T12:32:00.413Z,11.86
2023-03-08T12:37:03.184Z,11.80
2023-03-08T12:42:11.598Z,11.70
2023-03-08T12:47:13.741Z,12.09
2023-03-08T12:52:19.427Z,12.53
2023-03-08T12:57:27.119Z,12.64
2023-03-08T13:02:33.644Z,12.61
2023-03-08T13:08:08.896Z,12.41
2023-03-08T13:13:18.485Z,12.25
2023-03-08T13:18:33.247Z,12.34
2023-03-08T13:23:44.267Z,12.91
2023-03-08T13:28:48.364Z,12.88
2023-03-08T13:33:56.451Z,12.92
2023-03-08T13:39:01.765Z,12.77
2023-03-08T13:44:21.278Z,13.29
2023-03-08T13:49:33.221Z,14.16
2023-03-08T13:54:42.820Z,14.04
2023-03-08T13:59:54.036Z,14.25
2023-03-08T14:04:57.685Z,16.45
2023-03-08T14:09:59.882Z,16.21
2023-03-08T14:15:05.802Z,15.70
2023-03-08T14:20:22.622Z,13.94
2023-03-08T14:25:32.538Z,13.79
2023-03-08T14:30:34.935Z,13.51
2023-03-08T14:35:43.595Z,13.34
2023-03-08T14:40:52.247Z,13.25
2023-03-08T14:46:03.469Z,13.33
2023-03-08T14:51:26.367Z,12.92
2023-03-08T14:56:31.686Z,13.02
2023-03-08T15:01:37.853Z,12.90
2023-03-08T15:06:40.723Z,12.77
2023-03-08T15:11:45.459Z,12.87
2023-03-08T15:16:47.780Z,12.92
2023-03-08T15:21:49.999Z,13.12
2023-03-08T15:26:52.801Z,12.71
2023-03-08T15:31:56.605Z,12.57
2023-03-08T15:36:58.852Z,12.59
2023-03-08T15:42:01.117Z,12.69
2023-03-08T15:47:03.294Z,12.62
2023-03-08T15:52:07.607Z,12.66
2023-03-08T15:57:10.836Z,12.55
2023-03-08T16:02:18.535Z,12.56
2023-03-08T16:07:20.943Z,12.70
2023-03-08T16:12:23.481Z,12.57
2023-03-08T16:17:28.843Z,12.53
2023-03-08T16:22:30.914Z,12.47
2023-03-08T16:27:35.718Z,12.44
2023-03-08T16:32:39.310Z,12.31
2023-03-08T16:37:41.586Z,12.25
2023-03-08T16:42:43.651Z,12.24
2023-03-08T16:47:46.520Z,12.35
2023-03-08T16:52:48.634Z,12.15
2023-03-08T16:57:51.309Z,12.03
2023-03-08T17:02:53.329Z,11.75
2023-03-08T17:07:55.344Z,11.61
2023-03-08T17:12:57.665Z,11.60
2023-03-08T17:17:59.910Z,11.69
2023-03-08T17:23:02.215Z,11.73
2023-03-08T17:28:06.428Z,11.67
2023-03-08T17:33:10.482Z,11.64
2023-03-08T17:38:12.644Z,11.85
2023-03-08T17:43:15.287Z,11.98
2023-03-08T17:48:17.375Z,11.98
2023-03-08T17:53:20.198Z,11.89
2023-03-08T17:58:22.656Z,11.85
2023-03-08T18:03:24.783Z,11.90
2023-03-08T18:08:26.967Z,11.84
2023-03-08T18:13:29.088Z,11.84
2023-03-08T18:18:31.318Z,11.85
2023-03-08T18:23:33.430Z,11.55
2023-03-08T18:28:36.528Z,11.57
2023-03-08T18:33:38.948Z,11.53
2023-03-08T18:38:42.988Z,11.64
2023-03-08T18:43:45.541Z,11.60
2023-03-08T18:48:50.882Z,11.45
2023-03-08T18:53:56.151Z,11.56
2023-03-08T18:59:01.554Z,11.63
2023-03-08T19:04:06.308Z,11.57
2023-03-08T19:09:14.349Z,11.58
2023-03-08T19:14:17.432Z,11.74
2023-03-08T19:19:19.893Z,11.73
2023-03-08T19:24:22.641Z,11.68
2023-03-08T19:29:30.718Z,11.46
2023-03-08T19:34:39.268Z,11.52
2023-03-08T19:39:43.778Z,11.38
2023-03-08T19:44:48.627Z,11.20
2023-03-08T19:49:51.404Z,10.87
2023-03-08T19:54:54.003Z,10.69
2023-03-08T19:59:57.808Z,10.63
2023-03-08T20:05:00.914Z,10.59
2023-03-08T20:10:15.508Z,10.48
2023-03-08T20:15:18.533Z,10.54
2023-03-08T20:20:21.094Z,10.50
2023-03-08T20:25:23.604Z,10.82
2023-03-08T20:30:26.005Z,10.86
2023-03-08T20:35:28.797Z,10.93
2023-03-08T20:40:31.287Z,10.98
2023-03-08T20:45:33.886Z,11.18
2023-03-08T20:50:36.381Z,11.48
2023-03-08T20:55:39.818Z,11.39
2023-03-08T21:00:42.301Z,11.34
2023-03-08T21:05:44.946Z,11.20
2023-03-08T21:10:47.385Z,11.32
2023-03-08T21:15:49.934Z,11.55
2023-03-08T21:20:52.001Z,11.60
2023-03-08T21:25:57.294Z,11.64
2023-03-08T21:30:59.344Z,11.79
2023-03-08T21:36:01.656Z,11.51
2023-03-08T21:41:04.149Z,11.50
2023-03-08T21:46:06.353Z,11.40
2023-03-08T21:51:09.470Z,11.35
2023-03-08T21:56:15.144Z,11.29
2023-03-08T22:01:24.465Z,11.35
2023-03-08T22:06:27.702Z,11.32
2023-03-08T22:11:30.387Z,11.18
2023-03-08T22:16:33.812Z,10.92
2023-03-08T22:21:36.406Z,10.79
2023-03-08T22:26:39.007Z,10.81
2023-03-08T22:31:41.774Z,10.97
2023-03-08T22:36:44.220Z,11.18
2023-03-08T22:41:46.661Z,11.36
2023-03-08T22:46:49.435Z,11.46
2023-03-08T22:51:52.560Z,11.53
2023-03-08T22:56:54.934Z,11.58
2023-03-08T23:01:57.113Z,11.53
2023-03-08T23:06:59.165Z,11.57
2023-03-08T23:12:04.845Z,11.43
2023-03-08T23:17:06.967Z,11.18
2023-03-08T23:22:09.483Z,11.08
2023-03-08T23:27:11.853Z,11.14
2023-03-08T23:32:14.111Z,11.27
2023-03-08T23:37:16.455Z,11.26
2023-03-08T23:42:18.526Z,11.36
2023-03-08T23:47:20.518Z,11.31
2023-03-08T23:52:22.664Z,11.24
2023-03-08T23:57:24.724Z,11.18
